Sunday, November 19, 2017, 5:33 AM EST
Back to Local

K1P1, Plymouth, Plymouth Municipal Airport

Location: Plymouth, NH, United States Lat: 43.779
Local Time: 5:33 AM EST (10:33 GMT) Lon: -71.754
Time Zone: US/Eastern Elev: 505 ft

Show me the last for .
Show Decoded

2017-11-19 05:15 METAR K1P1 191015Z AUTO 00000KT 5SM BR SCT002 OVC006 01/00 A2923 RMK AO2
                 T00050004 =
2017-11-19 04:55 METAR K1P1 190955Z AUTO 00000KT 7SM OVC006 01/01 A2924 RMK AO2 P0002 T00060005 =
2017-11-19 04:35 METAR K1P1 190935Z AUTO 00000KT 5SM UP OVC008 01/01 A2926 RMK AO2 P0002
                 T00050005 =
2017-11-19 04:15 METAR K1P1 190915Z AUTO 00000KT 2 1/2SM UP OVC008 00/00 A2926 RMK AO2 P0002
                 T00040003 =
2017-11-19 03:55 METAR K1P1 190855Z AUTO 00000KT 1 3/4SM -SN OVC008 00/00 A2928 RMK AO2 P0004
                 60011 T00040003 =
2017-11-19 03:35 METAR K1P1 190835Z AUTO 00000KT 3SM UP OVC008 00/00 A2929 RMK AO2 P0002
                 T00040002 =
2017-11-19 03:15 METAR K1P1 190815Z AUTO 00000KT 3SM UP OVC008 01/00 A2931 RMK AO2 P0001
                 T00050002 =
2017-11-19 02:55 METAR K1P1 190755Z AUTO 00000KT 3SM UP OVC010 00/00 A2932 RMK AO2 P0001
                 T00030001 =
2017-11-19 02:35 METAR K1P1 190735Z AUTO 00000KT 4SM UP OVC010 00/00 A2934 RMK AO2 P0001
                 T00030002 =
2017-11-19 02:15 METAR K1P1 190715Z AUTO 00000KT 4SM UP OVC012 00/00 A2936 RMK AO2 P0001
                 T00030001 =
2017-11-19 01:55 METAR K1P1 190655Z AUTO 00000KT 3SM UP OVC012 00/00 A2938 RMK AO2 P0006
                 T00030001 =
2017-11-19 01:35 METAR K1P1 190635Z AUTO 00000KT 4SM UP OVC012 00/00 A2938 RMK AO2 P0005
                 T00020000 =
2017-11-19 01:15 METAR K1P1 190615Z AUTO 00000KT 2 1/2SM -SN OVC012 00/00 A2940 RMK AO2 P0003
                 T00010000 =
2017-11-19 00:55 METAR K1P1 190555Z AUTO 00000KT 2 1/2SM UP OVC012 00/00 A2941 RMK AO2 P0006
                 60022 T00010000 10007 20000 =
2017-11-19 00:35 METAR K1P1 190535Z AUTO 00000KT 2 1/2SM UP OVC012 00/00 A2942 RMK AO2 P0002
                 T00010000 =
2017-11-19 00:15 METAR K1P1 190515Z AUTO 00000KT 3SM UP OVC012 00/00 A2944 RMK AO2 P0001
                 T00010000 =
2017-11-18 23:55 METAR K1P1 190455Z AUTO 00000KT 2 1/2SM UP OVC012 00/00 A2946 RMK AO2 P0006
                 T00010000 =
2017-11-18 23:35 METAR K1P1 190435Z AUTO 00000KT 2 1/2SM UP SCT007 OVC012 00/00 A2948 RMK AO2
                 P0004 T00010000 =
2017-11-18 23:15 METAR K1P1 190415Z AUTO 00000KT 1 3/4SM -SN OVC012 00/00 A2949 RMK AO2 P0003
                 T00010000 =
2017-11-18 22:55 METAR K1P1 190355Z AUTO 00000KT 2 1/2SM UP OVC012 00/00 A2950 RMK AO2 P0006
                 T00010000 400211057 =
2017-11-18 22:35 METAR K1P1 190335Z AUTO 00000KT 2SM UP OVC014 00/00 A2952 RMK AO2 P0006
                 T00020000 =
2017-11-18 22:15 METAR K1P1 190315Z AUTO 00000KT 1 3/4SM -SN OVC014 00/00 A2955 RMK AO2 P0003
                 T00010000 =
2017-11-18 21:55 METAR K1P1 190255Z AUTO 00000KT 3SM UP OVC014 00/00 A2955 RMK AO2 P0003 60004
                 T00011001 =
2017-11-18 21:35 METAR K1P1 190235Z AUTO 00000KT 4SM UP OVC014 00/00 A2956 RMK AO2 P0003
                 T00011003 =
2017-11-18 21:15 METAR K1P1 190215Z AUTO 00000KT 5SM UP OVC016 00/00 A2958 RMK AO2 P0002
                 T00011005 =
2017-11-18 20:55 METAR K1P1 190155Z AUTO 00000KT 4SM -SN OVC016 00/M01 A2959 RMK AO2 P0001
                 T00031014 =
2017-11-18 20:35 METAR K1P1 190135Z AUTO 00000KT 7SM UP OVC018 01/M03 A2961 RMK AO2 T00061031 =
2017-11-18 20:15 METAR K1P1 190115Z AUTO 00000KT 10SM OVC022 01/M03 A2961 RMK AO2 T00061030 =
2017-11-18 19:55 METAR K1P1 190055Z AUTO 00000KT 10SM OVC024 00/M03 A2963 RMK AO2 T00041029 =
2017-11-18 19:35 METAR K1P1 190035Z AUTO 00000KT 10SM OVC026 00/M02 A2963 RMK AO2 T00041025 =
2017-11-18 19:15 METAR K1P1 190015Z AUTO 00000KT 10SM OVC028 01/M03 A2965 RMK AO2 T00051030 =
2017-11-18 18:55 METAR K1P1 182355Z AUTO 00000KT 10SM OVC028 01/M05 A2966 RMK AO2 T00051049 10021
                 20004 =
2017-11-18 18:32 METAR K1P1 182335Z AUTO 00000KT 10SM OVC030 01/M04 A2966 RMK AO2 T00051037 =
2017-11-18 18:15 METAR K1P1 182315Z AUTO 00000KT 10SM OVC033 01/M04 A2967 RMK AO2 T00051036 =
2017-11-18 17:55 METAR K1P1 182255Z AUTO 00000KT 10SM OVC040 01/M03 A2967 RMK AO2 T00071029 =
2017-11-18 17:35 METAR K1P1 182235Z AUTO 00000KT 10SM OVC044 01/M04 A2967 RMK AO2 T00081036 =
2017-11-18 17:15 METAR K1P1 182215Z AUTO 00000KT 10SM OVC046 01/M04 A2968 RMK AO2 T00101044 =
2017-11-18 16:55 METAR K1P1 182155Z AUTO 00000KT 10SM BKN048 OVC060 01/M04 A2968 RMK AO2
                 T00101045 =
2017-11-18 16:35 METAR K1P1 182135Z AUTO 00000KT 10SM OVC060 01/M05 A2968 RMK AO2 T00101047 =
2017-11-18 16:15 METAR K1P1 182115Z AUTO 00000KT 10SM OVC070 01/M06 A2970 RMK AO2 T00121059 =
2017-11-18 15:55 METAR K1P1 182055Z AUTO 00000KT 10SM BKN070 OVC080 01/M05 A2971 RMK AO2
                 T00121052 =
2017-11-18 15:33 METAR K1P1 182035Z AUTO 00000KT 10SM OVC090 02/M06 A2971 RMK AO2 T00151062 =
2017-11-18 15:15 METAR K1P1 182015Z AUTO 00000KT 10SM OVC100 02/M09 A2972 RMK AO2 T00191090 =
2017-11-18 14:55 METAR K1P1 181955Z AUTO 00000KT 10SM OVC110 02/M09 A2973 RMK AO2 T00211086 =
2017-11-18 14:35 METAR K1P1 181935Z AUTO 00000KT 10SM SCT080 OVC110 02/M09 A2973 RMK AO2
                 T00201086 =
2017-11-18 14:15 METAR K1P1 181915Z AUTO 00000KT 10SM SCT080 OVC110 02/M09 A2974 RMK AO2
                 T00201089 =
2017-11-18 13:55 METAR K1P1 181855Z AUTO 00000KT 10SM OVC110 02/M09 A2976 RMK AO2 T00201087 =
2017-11-18 13:35 METAR K1P1 181835Z AUTO 00000KT 10SM OVC110 02/M08 A2977 RMK AO2 T00171081 =
2017-11-18 13:15 METAR K1P1 181815Z AUTO 00000KT 10SM OVC110 02/M09 A2977 RMK AO2 T00171088 =
2017-11-18 12:55 METAR K1P1 181755Z AUTO 07003KT 10SM SCT120 02/M09 A2978 RMK AO2 T00161090 10016
                 21057 =
2017-11-18 12:35 METAR K1P1 181735Z AUTO 09003KT 10SM SCT120 02/M09 A2979 RMK AO2 T00161093 =
2017-11-18 12:15 METAR K1P1 181715Z AUTO 08003KT 10SM CLR 01/M10 A2980 RMK AO2 T00141100 =
2017-11-18 11:55 METAR K1P1 181655Z AUTO 00000KT 10SM SCT120 01/M10 A2981 RMK AO2 T00131098 =
2017-11-18 11:35 METAR K1P1 181635Z AUTO 11003KT 10SM SCT120 02/M09 A2983 RMK AO2 T00151091 =
2017-11-18 11:15 METAR K1P1 181615Z AUTO 00000KT 10SM CLR 01/M09 A2983 RMK AO2 T00061090 =
2017-11-18 10:55 METAR K1P1 181555Z AUTO 00000KT 10SM CLR 00/M09 A2986 RMK AO2 T00001091 =
2017-11-18 10:35 METAR K1P1 181535Z AUTO 00000KT 10SM CLR 00/M09 A2987 RMK AO2 T00001088 =
2017-11-18 10:15 METAR K1P1 181515Z AUTO 00000KT 10SM CLR M01/M08 A2989 RMK AO2 T10071082 =
2017-11-18 09:55 METAR K1P1 181455Z AUTO 00000KT 10SM CLR M01/M09 A2990 RMK AO2 T10111094 =
2017-11-18 09:33 METAR K1P1 181435Z AUTO 00000KT 10SM CLR M02/M09 A2991 RMK AO2 T10171090 =
2017-11-18 09:15 METAR K1P1 181415Z AUTO 00000KT 10SM CLR M03/M09 A2992 RMK AO2 T10281092 =
2017-11-18 08:55 METAR K1P1 181355Z AUTO 00000KT 10SM CLR M03/M09 A2993 RMK AO2 T10311089 =
2017-11-18 08:35 METAR K1P1 181335Z AUTO 00000KT 10SM CLR M04/M09 A2993 RMK AO2 T10371090 =
2017-11-18 08:15 METAR K1P1 181315Z AUTO 00000KT 10SM CLR M04/M09 A2993 RMK AO2 T10421091 =
2017-11-18 07:55 METAR K1P1 181255Z AUTO 00000KT 10SM CLR M04/M09 A2993 RMK AO2 T10451090 =
2017-11-18 07:35 METAR K1P1 181235Z AUTO 00000KT 10SM SCT110 M04/M09 A2993 RMK AO2 T10451089 =
2017-11-18 07:15 METAR K1P1 181215Z AUTO 32003KT 10SM SCT120 M05/M09 A2992 RMK AO2 T10551092 =
2017-11-18 06:55 METAR K1P1 181155Z AUTO 00000KT 10SM CLR M06/M09 A2993 RMK AO2 T10571093 11033
                 21057 =
2017-11-18 06:35 METAR K1P1 181135Z AUTO 00000KT 10SM CLR M05/M09 A2992 RMK AO2 T10551095 =
2017-11-18 06:15 METAR K1P1 181115Z AUTO 33007KT 10SM CLR M05/M10 A2992 RMK AO2 T10501098 =
2017-11-18 05:55 METAR K1P1 181055Z AUTO 31010KT 10SM CLR M05/M10 A2994 RMK AO2 T10481097 =
2017-11-18 05:35 METAR K1P1 181035Z AUTO 32009KT 10SM CLR M05/M10 A2994 RMK AO2 T10481099 =

Support USWX by starting your Amazon purchase here.